createdAt,value
2019-02-21T00:00:24.157Z,2.60
2019-02-21T00:12:55.544Z,2.40
2019-02-21T00:15:24.011Z,2.40
2019-02-21T00:17:52.481Z,2.30
2019-02-21T00:20:21.042Z,2.30
2019-02-21T00:22:49.511Z,2.30
2019-02-21T00:25:18.075Z,2.30
2019-02-21T00:27:46.571Z,2.30
2019-02-21T00:30:15.220Z,2.30
2019-02-21T00:32:43.751Z,2.30
2019-02-21T00:35:12.218Z,2.30
2019-02-21T00:37:40.709Z,2.30
2019-02-21T00:40:09.170Z,2.40
2019-02-21T00:42:37.666Z,2.40
2019-02-21T00:45:06.644Z,2.40
2019-02-21T00:47:35.115Z,2.40
2019-02-21T00:50:03.874Z,2.40
2019-02-21T00:52:32.367Z,2.30
2019-02-21T00:55:00.827Z,2.30
2019-02-21T00:57:29.295Z,2.20
2019-02-21T00:59:57.787Z,2.20
2019-02-21T01:02:26.335Z,2.10
2019-02-21T01:04:54.899Z,2.10
2019-02-21T01:07:23.450Z,2.10
2019-02-21T01:09:52.054Z,2.10
2019-02-21T01:12:20.914Z,2.00
2019-02-21T01:14:49.627Z,2.00
2019-02-21T01:17:18.094Z,1.90
2019-02-21T01:19:46.651Z,1.90
2019-02-21T01:22:15.191Z,1.90
2019-02-21T01:24:43.750Z,1.80
2019-02-21T01:27:12.232Z,1.80
2019-02-21T01:29:40.874Z,1.80
2019-02-21T01:32:09.337Z,1.80
2019-02-21T01:34:37.818Z,1.80
2019-02-21T01:37:06.351Z,1.70
2019-02-21T01:39:34.904Z,1.70
2019-02-21T01:42:03.471Z,1.80
2019-02-21T01:44:32.015Z,1.80
2019-02-21T01:47:00.507Z,1.80
2019-02-21T01:49:28.980Z,1.80
2019-02-21T01:51:57.532Z,1.80
2019-02-21T01:54:45.331Z,1.80
2019-02-21T01:57:13.828Z,1.70
2019-02-21T01:59:42.370Z,1.70
2019-02-21T02:02:10.828Z,1.60
2019-02-21T02:04:39.391Z,1.60
2019-02-21T02:07:07.863Z,1.60
2019-02-21T02:09:36.494Z,1.70
2019-02-21T02:12:04.955Z,1.70
2019-02-21T02:14:33.610Z,1.70
2019-02-21T02:17:02.074Z,1.70
2019-02-21T02:19:30.683Z,1.60
2019-02-21T02:21:59.291Z,1.70
2019-02-21T02:24:27.791Z,1.70
2019-02-21T02:26:56.330Z,1.90
2019-02-21T02:29:24.864Z,2.00
2019-02-21T02:31:53.428Z,2.10
2019-02-21T02:34:21.963Z,2.20
2019-02-21T02:36:50.471Z,2.30
2019-02-21T02:39:19.092Z,2.30
2019-02-21T02:41:47.616Z,2.40
2019-02-21T02:44:16.175Z,2.40
2019-02-21T02:46:44.665Z,2.30
2019-02-21T02:49:13.214Z,2.20
2019-02-21T02:51:41.848Z,2.20
2019-02-21T02:54:10.407Z,2.10
2019-02-21T02:56:38.970Z,2.00
2019-02-21T02:59:07.532Z,1.90
2019-02-21T03:01:35.997Z,2.00
2019-02-21T03:04:04.661Z,2.10
2019-02-21T03:06:33.191Z,2.10
2019-02-21T03:09:01.725Z,2.10
2019-02-21T03:11:30.259Z,2.20
2019-02-21T03:13:58.802Z,2.30
2019-02-21T03:16:27.427Z,2.40
2019-02-21T03:18:55.890Z,2.40
2019-02-21T03:21:24.383Z,2.50
2019-02-21T03:23:52.888Z,2.50
2019-02-21T03:26:21.426Z,2.50
2019-02-21T03:28:49.891Z,2.40
2019-02-21T03:31:18.474Z,2.30
2019-02-21T03:33:47.109Z,2.20
2019-02-21T03:36:15.662Z,2.20
2019-02-21T03:38:44.360Z,2.10
2019-02-21T03:41:12.919Z,2.10
2019-02-21T03:43:41.387Z,2.10
2019-02-21T03:46:09.883Z,2.00
2019-02-21T03:48:38.443Z,1.90
2019-02-21T03:51:06.905Z,1.90
2019-02-21T03:53:35.460Z,1.80
2019-02-21T03:56:04.137Z,1.80
2019-02-21T03:58:32.699Z,1.70
2019-02-21T04:01:01.230Z,1.60
2019-02-21T04:03:29.786Z,1.50
2019-02-21T04:05:58.412Z,1.50
2019-02-21T04:08:26.907Z,1.50
2019-02-21T04:10:55.447Z,1.50
2019-02-21T04:13:23.937Z,1.40
2019-02-21T04:15:52.471Z,1.40
2019-02-21T04:18:20.979Z,1.30
2019-02-21T04:20:49.442Z,1.30
2019-02-21T04:23:17.953Z,1.20
2019-02-21T04:25:46.499Z,1.30
2019-02-21T04:28:15.057Z,1.30
2019-02-21T04:30:43.547Z,1.40
2019-02-21T04:33:12.119Z,1.40
2019-02-21T04:35:40.655Z,1.50
2019-02-21T04:38:09.127Z,1.50
2019-02-21T04:40:37.697Z,1.50
2019-02-21T04:43:06.239Z,1.50
2019-02-21T04:45:34.779Z,1.40
2019-02-21T04:48:03.344Z,1.40
2019-02-21T04:50:31.903Z,1.40
2019-02-21T04:53:00.396Z,1.40
2019-02-21T04:55:28.855Z,1.40
2019-02-21T04:57:57.343Z,1.40
2019-02-21T05:00:26.015Z,1.50
2019-02-21T05:02:54.507Z,1.60
2019-02-21T05:05:23.107Z,1.70
2019-02-21T05:07:51.594Z,1.80
2019-02-21T05:10:20.058Z,1.80
2019-02-21T05:12:48.544Z,1.80
2019-02-21T05:15:17.032Z,1.70
2019-02-21T05:17:45.571Z,1.70
2019-02-21T05:20:14.065Z,1.60
2019-02-21T05:22:42.600Z,1.60
2019-02-21T05:25:11.086Z,1.60
2019-02-21T05:27:40.223Z,1.50
2019-02-21T05:30:11.430Z,1.60
2019-02-21T05:32:41.614Z,1.60
2019-02-21T05:35:11.735Z,1.70
2019-02-21T05:37:57.906Z,1.80
2019-02-21T05:40:28.772Z,1.80
2019-02-21T05:43:05.288Z,1.80
2019-02-21T05:45:35.412Z,1.80
2019-02-21T05:48:05.543Z,1.90
2019-02-21T05:50:41.605Z,1.90
2019-02-21T05:53:14.949Z,2.00
2019-02-21T05:55:45.059Z,2.10
2019-02-21T05:58:15.188Z,2.10
2019-02-21T06:01:01.516Z,2.20
2019-02-21T06:03:40.702Z,2.20
2019-02-21T06:06:10.907Z,2.20
2019-02-21T06:08:44.208Z,2.20
2019-02-21T06:11:30.822Z,2.20
2019-02-21T06:14:13.047Z,2.30
2019-02-21T06:16:43.192Z,2.30
2019-02-21T06:19:22.358Z,2.30
2019-02-21T06:21:55.375Z,2.20
2019-02-21T06:24:34.787Z,2.20
2019-02-21T06:27:12.297Z,2.20
2019-02-21T06:29:45.311Z,2.20
2019-02-21T06:32:14.679Z,2.20
2019-02-21T06:34:43.323Z,2.30
2019-02-21T06:37:12.820Z,2.30
2019-02-21T06:39:41.551Z,2.30
2019-02-21T06:42:10.152Z,2.30
2019-02-21T06:44:38.703Z,2.30
2019-02-21T06:47:07.250Z,2.40
2019-02-21T06:49:35.810Z,2.50
2019-02-21T06:52:04.320Z,2.60
2019-02-21T06:54:32.843Z,2.70
2019-02-21T06:57:01.429Z,2.80
2019-02-21T06:59:30.031Z,2.90
2019-02-21T07:01:58.628Z,3.00
2019-02-21T07:04:27.097Z,3.10
2019-02-21T07:06:56.864Z,3.20
2019-02-21T07:09:25.619Z,3.30
2019-02-21T07:11:54.179Z,3.50
2019-02-21T07:14:22.670Z,3.60
2019-02-21T07:16:51.314Z,3.80
2019-02-21T07:19:19.810Z,4.10
2019-02-21T07:21:48.476Z,4.40
2019-02-21T07:24:18.146Z,4.60
2019-02-21T07:26:46.853Z,4.80
2019-02-21T07:29:15.339Z,5.10
2019-02-21T07:31:43.808Z,5.40
2019-02-21T07:34:12.453Z,5.60
2019-02-21T07:36:40.985Z,5.80
2019-02-21T07:39:17.193Z,6.00
2019-02-21T07:41:41.641Z,6.10
2019-02-21T07:44:12.290Z,6.20
2019-02-21T07:46:40.271Z,6.10
2019-02-21T07:49:08.738Z,6.10
2019-02-21T07:51:37.229Z,6.00
2019-02-21T07:54:05.971Z,6.00
2019-02-21T07:56:42.154Z,5.90
2019-02-21T07:59:04.985Z,5.80
2019-02-21T08:01:33.571Z,5.80
2019-02-21T08:04:02.044Z,5.70
2019-02-21T08:06:30.608Z,5.70
2019-02-21T08:08:59.159Z,5.70
2019-02-21T08:11:27.786Z,5.80
2019-02-21T08:13:56.296Z,5.80
2019-02-21T08:16:24.827Z,5.90
2019-02-21T08:18:53.371Z,6.10
2019-02-21T08:21:21.879Z,6.20
2019-02-21T08:23:51.098Z,6.30
2019-02-21T08:26:20.254Z,6.20
2019-02-21T08:28:48.866Z,6.30
2019-02-21T08:31:17.520Z,6.40
2019-02-21T08:33:58.704Z,6.40
2019-02-21T08:36:27.518Z,6.50
2019-02-21T08:38:56.142Z,6.60
2019-02-21T08:41:25.816Z,6.60
2019-02-21T08:43:57.215Z,6.60
2019-02-21T08:46:24.683Z,7.00
2019-02-21T08:48:53.252Z,7.40
2019-02-21T08:51:21.715Z,7.60
2019-02-21T08:53:50.204Z,7.80
2019-02-21T08:56:18.674Z,7.80
2019-02-21T08:58:47.264Z,7.80
2019-02-21T09:01:15.764Z,8.00
2019-02-21T09:03:44.366Z,8.20
2019-02-21T09:06:12.862Z,8.60
2019-02-21T09:08:41.434Z,8.80
2019-02-21T09:11:10.188Z,9.00
2019-02-21T09:13:41.509Z,9.20
2019-02-21T09:16:08.946Z,9.40
2019-02-21T09:18:37.513Z,9.50
2019-02-21T09:21:06.071Z,9.40
2019-02-21T09:23:34.567Z,9.30
2019-02-21T09:26:03.039Z,9.10
2019-02-21T09:28:31.686Z,8.90
2019-02-21T09:31:00.257Z,8.80
2019-02-21T09:33:28.832Z,8.70
2019-02-21T09:35:57.399Z,8.60
2019-02-21T09:38:25.959Z,8.70
2019-02-21T09:40:54.515Z,9.00
2019-02-21T09:43:22.993Z,9.20
2019-02-21T09:45:51.542Z,9.50
2019-02-21T09:48:20.012Z,9.90
2019-02-21T09:50:48.578Z,10.30
2019-02-21T09:53:17.091Z,10.60
2019-02-21T09:55:45.621Z,10.80
2019-02-21T09:58:14.191Z,10.90
2019-02-21T10:00:42.731Z,10.80
2019-02-21T10:03:11.383Z,10.70
2019-02-21T10:05:39.951Z,10.50
2019-02-21T10:08:08.424Z,10.20
2019-02-21T10:10:36.987Z,10.00
2019-02-21T10:13:05.695Z,9.80
2019-02-21T10:15:34.227Z,9.70
2019-02-21T10:18:03.271Z,9.70
2019-02-21T10:20:31.827Z,9.80
2019-02-21T10:23:00.323Z,10.10
2019-02-21T10:25:32.639Z,10.60
2019-02-21T10:28:01.137Z,11.10
2019-02-21T10:30:29.754Z,11.70
2019-02-21T10:32:58.260Z,12.10
2019-02-21T10:35:26.808Z,12.30
2019-02-21T10:37:55.319Z,12.50
2019-02-21T10:40:23.936Z,12.80
2019-02-21T10:42:52.475Z,12.90
2019-02-21T10:45:22.482Z,13.00
2019-02-21T10:47:51.127Z,13.00
2019-02-21T10:50:21.307Z,12.70
2019-02-21T10:52:49.987Z,12.40
2019-02-21T10:55:19.467Z,12.40
2019-02-21T10:57:48.184Z,12.70
2019-02-21T11:00:26.452Z,12.70
2019-02-21T11:02:55.533Z,13.00
2019-02-21T11:05:24.167Z,13.20
2019-02-21T11:07:52.639Z,12.90
2019-02-21T11:10:31.096Z,12.60
2019-02-21T11:12:59.610Z,12.80
2019-02-21T11:15:28.268Z,13.00
2019-02-21T11:17:56.893Z,12.90
2019-02-21T11:20:25.591Z,12.80
2019-02-21T11:22:54.159Z,12.90
2019-02-21T11:25:22.854Z,13.00
2019-02-21T11:27:51.466Z,13.10
2019-02-21T11:30:22.691Z,13.10
2019-02-21T11:32:51.362Z,13.10
2019-02-21T11:35:19.936Z,12.90
2019-02-21T11:37:48.578Z,12.90
2019-02-21T11:40:17.951Z,13.00
2019-02-21T11:42:46.731Z,13.10
2019-02-21T11:45:16.953Z,12.80
2019-02-21T11:47:45.520Z,12.60
2019-02-21T11:50:16.127Z,12.50
2019-02-21T11:52:44.750Z,12.30
2019-02-21T11:55:21.347Z,12.40
2019-02-21T11:57:49.818Z,12.50
2019-02-21T12:00:21.649Z,12.50
2019-02-21T12:02:50.315Z,12.40
2019-02-21T12:05:30.254Z,12.40
2019-02-21T12:07:49.158Z,12.30
2019-02-21T12:10:17.799Z,12.40
2019-02-21T12:12:46.344Z,12.60
2019-02-21T12:15:16.255Z,12.70
2019-02-21T12:17:44.731Z,13.00
2019-02-21T12:20:18.163Z,13.60
2019-02-21T12:22:47.240Z,13.90
2019-02-21T12:25:21.059Z,14.00
2019-02-21T12:27:49.622Z,13.80
2019-02-21T12:30:20.027Z,13.50
2019-02-21T12:32:48.702Z,13.00
2019-02-21T12:35:28.761Z,12.60
2019-02-21T12:37:47.653Z,12.50
2019-02-21T12:40:18.732Z,12.80
2019-02-21T12:42:47.305Z,13.00
2019-02-21T12:45:17.682Z,13.20
2019-02-21T12:47:50.723Z,13.40
2019-02-21T12:50:16.511Z,13.50
2019-02-21T12:52:45.151Z,13.30
2019-02-21T12:55:26.580Z,13.10
2019-02-21T12:57:44.771Z,12.90
2019-02-21T13:00:21.230Z,12.90
2019-02-21T13:02:49.952Z,12.70
2019-02-21T13:05:18.571Z,12.60
2019-02-21T13:07:47.224Z,12.50
2019-02-21T13:10:20.351Z,12.30
2019-02-21T13:12:48.907Z,12.20
2019-02-21T13:15:17.811Z,12.00
2019-02-21T13:17:46.286Z,12.20
2019-02-21T13:20:15.314Z,12.30
2019-02-21T13:22:43.873Z,12.50
2019-02-21T13:25:14.496Z,13.00
2019-02-21T13:27:43.116Z,13.50
2019-02-21T13:30:14.248Z,13.80
2019-02-21T13:32:42.847Z,13.60
2019-02-21T13:35:11.650Z,13.50
2019-02-21T13:37:40.302Z,13.40
2019-02-21T13:40:11.611Z,13.40
2019-02-21T13:42:40.115Z,13.30
2019-02-21T13:45:10.498Z,13.40
2019-02-21T13:47:39.336Z,13.50
2019-02-21T13:50:13.698Z,13.50
2019-02-21T13:52:42.251Z,13.50
2019-02-21T13:55:11.599Z,13.70
2019-02-21T13:57:40.143Z,13.90
2019-02-21T14:00:20.597Z,14.10
2019-02-21T14:02:49.178Z,14.10
2019-02-21T14:05:17.735Z,14.00
2019-02-21T14:07:46.307Z,14.10
2019-02-21T14:10:15.299Z,14.10
2019-02-21T14:12:43.944Z,14.00
2019-02-21T14:15:24.757Z,13.70
2019-02-21T14:17:53.359Z,13.50
2019-02-21T14:20:21.902Z,13.60
2019-02-21T14:22:50.502Z,13.70
2019-02-21T14:25:19.051Z,13.80
2019-02-21T14:27:47.622Z,14.20
2019-02-21T14:30:21.363Z,14.30
2019-02-21T14:32:49.915Z,14.40
2019-02-21T14:35:18.422Z,14.40
2019-02-21T14:37:46.991Z,14.40
2019-02-21T14:40:16.798Z,14.20
2019-02-21T14:42:45.350Z,13.80
2019-02-21T14:45:19.687Z,13.60
2019-02-21T14:47:48.427Z,13.50
2019-02-21T14:50:17.820Z,13.50
2019-02-21T14:52:46.290Z,13.50
2019-02-21T14:55:15.931Z,13.60
2019-02-21T14:57:44.560Z,13.50
2019-02-21T15:00:27.413Z,13.40
2019-02-21T15:02:57.869Z,13.30
2019-02-21T15:05:26.411Z,13.20
2019-02-21T15:07:54.907Z,13.10
2019-02-21T15:10:23.540Z,13.10
2019-02-21T15:12:52.104Z,13.10
2019-02-21T15:15:25.939Z,13.30
2019-02-21T15:17:54.575Z,13.40
2019-02-21T15:20:23.115Z,13.50
2019-02-21T15:22:53.829Z,13.60
2019-02-21T15:25:21.815Z,13.60
2019-02-21T15:27:50.283Z,13.80
2019-02-21T15:30:23.575Z,13.80
2019-02-21T15:32:52.182Z,13.90
2019-02-21T15:35:20.676Z,13.90
2019-02-21T15:37:49.167Z,13.90
2019-02-21T15:40:17.801Z,13.80
2019-02-21T15:42:46.419Z,13.80
2019-02-21T15:45:23.175Z,13.70
2019-02-21T15:47:47.765Z,13.70
2019-02-21T15:50:19.554Z,13.60
2019-02-21T15:52:47.388Z,13.60
2019-02-21T15:55:18.050Z,13.50
2019-02-21T15:57:46.613Z,13.50
2019-02-21T16:00:17.593Z,13.40
2019-02-21T16:02:46.295Z,13.30
2019-02-21T16:05:14.910Z,13.30
2019-02-21T16:07:43.577Z,13.30
2019-02-21T16:10:28.916Z,13.20
2019-02-21T16:12:57.872Z,13.20
2019-02-21T16:15:27.031Z,13.10
2019-02-21T16:17:55.674Z,13.10
2019-02-21T16:20:24.235Z,12.90
2019-02-21T16:22:52.928Z,12.90
2019-02-21T16:25:27.109Z,12.80
2019-02-21T16:27:55.844Z,12.80
2019-02-21T16:30:24.648Z,12.70
2019-02-21T16:32:53.257Z,12.60
2019-02-21T16:35:22.006Z,12.60
2019-02-21T16:37:50.587Z,12.60
2019-02-21T16:40:20.115Z,12.50
2019-02-21T16:42:49.014Z,12.50
2019-02-21T16:45:19.270Z,12.50
2019-02-21T16:47:47.787Z,12.40
2019-02-21T16:50:16.454Z,12.50
2019-02-21T16:52:45.087Z,12.40
2019-02-21T16:55:16.491Z,12.40
2019-02-21T16:57:44.987Z,12.40
2019-02-21T17:00:15.912Z,12.50
2019-02-21T17:02:44.563Z,12.40
2019-02-21T17:05:13.809Z,12.40
2019-02-21T17:07:42.482Z,12.30
2019-02-21T17:10:13.678Z,12.30
2019-02-21T17:12:42.310Z,12.20
2019-02-21T17:15:15.355Z,12.20
2019-02-21T17:17:43.998Z,12.20
2019-02-21T17:20:15.419Z,12.30
2019-02-21T17:22:43.967Z,12.30
2019-02-21T17:25:14.618Z,12.20
2019-02-21T17:27:44.044Z,12.20
2019-02-21T17:30:17.361Z,12.20
2019-02-21T17:32:45.963Z,12.10
2019-02-21T17:35:15.007Z,12.00
2019-02-21T17:37:43.615Z,12.00
2019-02-21T17:40:25.554Z,12.00
2019-02-21T17:42:54.161Z,12.00
2019-02-21T17:45:23.615Z,11.90
2019-02-21T17:47:52.253Z,11.90
2019-02-21T17:50:20.948Z,11.80
2019-02-21T17:52:49.519Z,11.80
2019-02-21T17:55:18.656Z,11.80
2019-02-21T17:58:08.099Z,11.70
2019-02-21T18:00:38.221Z,11.70
2019-02-21T18:03:06.818Z,11.70
2019-02-21T18:05:35.311Z,11.70
2019-02-21T18:08:04.248Z,11.70
2019-02-21T18:10:32.744Z,11.70
2019-02-21T18:13:01.309Z,11.70
2019-02-21T18:15:29.851Z,11.60
2019-02-21T18:17:58.347Z,11.60
2019-02-21T18:20:26.838Z,11.60
2019-02-21T18:22:55.376Z,11.60
2019-02-21T18:25:35.554Z,11.60
2019-02-21T18:28:04.182Z,11.50
2019-02-21T18:30:32.921Z,11.50
2019-02-21T18:33:01.470Z,11.50
2019-02-21T18:35:30.039Z,11.50
2019-02-21T18:37:58.748Z,11.50
2019-02-21T18:40:28.283Z,11.50
2019-02-21T18:42:57.019Z,11.50
2019-02-21T18:45:26.487Z,11.50
2019-02-21T18:47:54.955Z,11.40
2019-02-21T18:50:23.653Z,11.40
2019-02-21T18:52:52.237Z,11.30
2019-02-21T18:55:20.783Z,11.30
2019-02-21T18:57:49.328Z,11.30
2019-02-21T19:00:25.919Z,11.20
2019-02-21T19:02:54.458Z,11.10
2019-02-21T19:05:23.275Z,11.10
2019-02-21T19:08:03.324Z,11.10
2019-02-21T19:10:23.251Z,11.10
2019-02-21T19:12:51.954Z,11.00
2019-02-21T19:15:21.296Z,11.10
2019-02-21T19:17:49.978Z,11.00
2019-02-21T19:20:20.016Z,10.90
2019-02-21T19:22:48.651Z,10.80
2019-02-21T19:25:17.291Z,10.70
2019-02-21T19:27:46.067Z,10.50
2019-02-21T19:30:35.359Z,10.30
2019-02-21T19:33:04.042Z,10.10
2019-02-21T19:35:32.779Z,10.00
2019-02-21T19:38:09.952Z,9.90
2019-02-21T19:40:31.767Z,9.90
2019-02-21T19:43:00.262Z,9.90
2019-02-21T19:45:28.938Z,9.90
2019-02-21T19:47:57.587Z,9.90
2019-02-21T19:50:26.523Z,10.00
2019-02-21T19:52:55.087Z,10.10
2019-02-21T19:55:23.691Z,10.20
2019-02-21T19:57:52.186Z,10.20
2019-02-21T20:00:24.467Z,10.20
2019-02-21T20:02:53.103Z,10.20
2019-02-21T20:05:21.743Z,10.20
2019-02-21T20:07:50.631Z,10.20
2019-02-21T20:10:19.542Z,10.20
2019-02-21T20:12:48.184Z,10.10
2019-02-21T20:15:16.868Z,10.10
2019-02-21T20:17:45.542Z,10.00
2019-02-21T20:20:19.872Z,9.90
2019-02-21T20:22:48.415Z,9.80
2019-02-21T20:25:17.023Z,9.70
2019-02-21T20:27:45.523Z,9.80
2019-02-21T20:30:16.431Z,9.80
2019-02-21T20:32:44.904Z,9.80
2019-02-21T20:35:13.704Z,9.90
2019-02-21T20:37:42.268Z,9.90
2019-02-21T20:40:12.017Z,9.90
2019-02-21T20:42:40.577Z,9.90
2019-02-21T20:45:11.363Z,9.90
2019-02-21T20:47:39.938Z,9.90
2019-02-21T20:50:10.444Z,9.90
2019-02-21T20:52:39.157Z,9.80
2019-02-21T20:55:09.643Z,9.90
2019-02-21T20:57:38.202Z,9.90
2019-02-21T21:00:16.138Z,9.90
2019-02-21T21:02:44.642Z,9.90
2019-02-21T21:05:13.547Z,9.90
2019-02-21T21:07:42.166Z,9.90
2019-02-21T21:10:16.182Z,9.90
2019-02-21T21:12:45.015Z,10.00
2019-02-21T21:15:14.825Z,9.90
2019-02-21T21:17:43.564Z,9.90
2019-02-21T21:20:16.839Z,10.00
2019-02-21T21:22:44.582Z,9.90
2019-02-21T21:25:17.892Z,10.00
2019-02-21T21:27:46.503Z,10.00
2019-02-21T21:30:16.413Z,10.00
2019-02-21T21:32:45.095Z,10.00
2019-02-21T21:35:13.689Z,10.00
2019-02-21T21:37:42.465Z,10.00
2019-02-21T21:40:18.855Z,9.90
2019-02-21T21:42:47.356Z,10.00
2019-02-21T21:45:20.229Z,10.00
2019-02-21T21:47:48.860Z,9.90
2019-02-21T21:50:18.767Z,9.90
2019-02-21T21:52:47.408Z,9.90
2019-02-21T21:55:15.955Z,9.90
2019-02-21T21:57:44.562Z,10.00
2019-02-21T22:00:21.447Z,9.90
2019-02-21T22:02:50.180Z,9.80
2019-02-21T22:05:18.771Z,9.80
2019-02-21T22:07:49.484Z,9.80
2019-02-21T22:10:18.322Z,9.80
2019-02-21T22:12:46.900Z,9.80
2019-02-21T22:15:23.728Z,9.80
2019-02-21T22:17:52.364Z,9.80
2019-02-21T22:20:20.829Z,9.80
2019-02-21T22:22:49.463Z,9.80
2019-02-21T22:25:18.026Z,9.70
2019-02-21T22:27:46.520Z,9.70
2019-02-21T22:30:18.130Z,9.60
2019-02-21T22:32:46.810Z,9.60
2019-02-21T22:35:15.493Z,9.60
2019-02-21T22:37:44.178Z,9.60
2019-02-21T22:40:15.075Z,9.50
2019-02-21T22:42:43.635Z,9.50
2019-02-21T22:45:12.318Z,9.60
2019-02-21T22:47:40.975Z,9.60
2019-02-21T22:50:19.554Z,9.60
2019-02-21T22:52:48.191Z,9.70
2019-02-21T22:55:16.923Z,9.70
2019-02-21T22:57:45.475Z,9.70
2019-02-21T23:00:36.458Z,9.70
2019-02-21T23:03:09.094Z,9.70
2019-02-21T23:05:52.564Z,9.50
2019-02-21T23:08:29.910Z,9.30
2019-02-21T23:10:58.544Z,9.00
2019-02-21T23:13:27.103Z,8.80
2019-02-21T23:15:55.663Z,8.60
2019-02-21T23:18:24.272Z,8.50
2019-02-21T23:20:52.905Z,8.40
2019-02-21T23:23:21.449Z,8.40
2019-02-21T23:25:50.011Z,8.50
2019-02-21T23:28:18.476Z,8.60
2019-02-21T23:30:46.971Z,8.70
2019-02-21T23:33:15.604Z,8.70
2019-02-21T23:35:44.093Z,8.70
2019-02-21T23:38:12.637Z,8.70
2019-02-21T23:40:41.172Z,8.70
2019-02-21T23:43:09.751Z,8.70
2019-02-21T23:45:38.215Z,8.80
2019-02-21T23:48:06.706Z,8.80
2019-02-21T23:50:35.175Z,8.90
2019-02-21T23:53:03.779Z,8.90
2019-02-21T23:55:32.386Z,9.00
2019-02-21T23:58:00.858Z,9.10
